Terminal Aerodrome Forecast
Issued by NWS

Home | Current Version | Previous Version | Graphics & Text | Print | Product List | Glossary On
Versions: 1 2 3 4 5 6 7 8 9 10 11 12 13 14 15 16 17 18 19 20 21 22 23 24 25 26 27
000
FTUS45 KGGW 101124
TAFGDV
TAF
KGDV 101124Z 1012/1112 29010KT P6SM SCT250
     FM101800 33012KT P6SM SCT200
     FM102300 35007KT P6SM BKN070
     FM110400 06004KT P6SM BKN035
     FM110800 06004KT P6SM BKN020
      AMD LTD TO CLD VIS AND WIND=

USA.gov is the U.S. government's official web portal to all federal, state and local government web resources and services.